Time;durP1;ratioP1;P1;durP2;ratioP2;P2;SDS_P1;SDS_P2;PMS_P1;PMS_P2;Temp;Humidity;BMP_temperature;BMP_pressure;BME280_temperature;BME280_humidity;BME280_pressure;Samples;Min_cycle;Max_cycle;Signal;HPM_P1;HPM_P2
2022/03/18 00:00:38;;;;;;;4.45;2.17;;;;;;;19.85;41.89;103789.84;5015636;28;20038;-59
2022/03/18 00:03:03;;;;;;;5.80;2.42;;;;;;;19.83;42.08;103791.72;5015234;28;20470;-59
2022/03/18 00:05:29;;;;;;;4.80;2.00;;;;;;;19.80;42.21;103791.84;5015882;28;20029;-58
2022/03/18 00:07:54;;;;;;;5.35;2.25;;;;;;;19.78;42.00;103793.69;5015791;28;20036;-59
2022/03/18 00:10:20;;;;;;;4.35;2.03;;;;;;;19.75;42.10;103799.94;5015235;28;20026;-59
2022/03/18 00:12:47;;;;;;;5.50;2.28;;;;;;;19.72;41.83;103814.13;5015382;28;20041;-58
2022/03/18 00:15:13;;;;;;;4.20;2.20;;;;;;;19.70;41.97;103812.50;5015552;28;20393;-59
2022/03/18 00:17:39;;;;;;;4.18;2.15;;;;;;;19.68;42.07;103809.91;5014599;28;20026;-59
2022/03/18 00:20:06;;;;;;;5.93;2.30;;;;;;;19.65;42.09;103817.97;5015713;28;20026;-59
2022/03/18 00:22:32;;;;;;;5.65;2.33;;;;;;;19.64;41.83;103823.34;5015557;28;20053;-59
2022/03/18 00:24:58;;;;;;;4.60;2.20;;;;;;;19.62;41.83;103827.84;5014807;28;20430;-59
2022/03/18 00:27:24;;;;;;;5.15;2.05;;;;;;;19.61;42.17;103819.00;5015438;28;20065;-58
2022/03/18 00:29:49;;;;;;;4.22;2.03;;;;;;;19.57;42.09;103823.56;5015207;28;20021;-59
2022/03/18 00:32:14;;;;;;;4.35;2.05;;;;;;;19.56;41.90;103818.34;5014706;28;20377;-58
2022/03/18 00:34:40;;;;;;;7.35;3.15;;;;;;;19.53;41.84;103811.38;5014998;28;20106;-59
2022/03/18 00:37:05;;;;;;;5.43;1.90;;;;;;;19.52;41.86;103811.47;5015307;28;20030;-59
2022/03/18 00:39:31;;;;;;;3.92;2.10;;;;;;;19.49;41.92;103817.75;5014531;28;20029;-58
2022/03/18 00:41:56;;;;;;;4.60;2.00;;;;;;;19.49;41.80;103816.91;5015035;28;20030;-58
2022/03/18 00:44:25;;;;;;;4.65;1.90;;;;;;;19.46;41.73;103817.88;5015168;28;20028;-59
2022/03/18 00:46:50;;;;;;;5.45;3.35;;;;;;;19.45;41.61;103825.84;5014194;28;20448;-58
2022/03/18 00:52:04;;;;;;;4.45;2.20;;;;;;;19.40;41.70;103832.19;5015367;28;20116;-58
2022/03/18 00:54:42;;;;;;;5.85;2.50;;;;;;;19.37;41.53;103834.09;5014363;28;20397;-59
2022/03/18 00:57:09;;;;;;;4.70;2.40;;;;;;;19.35;41.85;103831.50;5015047;28;20105;-58
2022/03/18 00:59:34;;;;;;;4.50;2.17;;;;;;;19.33;41.75;103830.72;5013806;28;20042;-59
2022/03/18 01:01:59;;;;;;;5.43;2.20;;;;;;;19.32;41.61;103839.56;5014803;28;20414;-59
2022/03/18 01:04:28;;;;;;;6.53;2.47;;;;;;;19.30;41.62;103836.13;5014888;28;20022;-59
2022/03/18 01:06:54;;;;;;;4.30;2.05;;;;;;;19.29;41.87;103841.47;5013859;28;20038;-59
2022/03/18 01:09:21;;;;;;;4.95;2.33;;;;;;;19.27;41.62;103841.53;5014842;28;20077;-59
2022/03/18 01:11:47;;;;;;;5.30;2.20;;;;;;;19.23;41.54;103842.56;5014268;28;20045;-59
2022/03/18 01:14:13;;;;;;;4.65;2.20;;;;;;;19.23;41.43;103850.50;5013677;28;20034;-59
2022/03/18 01:16:38;;;;;;;5.28;2.40;;;;;;;19.21;41.49;103853.19;5014426;28;20028;-59
2022/03/18 01:19:03;;;;;;;4.95;2.40;;;;;;;19.19;41.63;103843.63;5014684;28;20465;-59
2022/03/18 01:21:29;;;;;;;5.25;2.40;;;;;;;19.19;41.47;103851.56;5013720;28;20024;-59
2022/03/18 01:23:54;;;;;;;4.40;2.17;;;;;;;19.17;41.63;103854.25;5014074;28;20109;-59
2022/03/18 01:26:20;;;;;;;5.30;2.60;;;;;;;19.15;41.55;103842.00;5014548;28;20025;-59
2022/03/18 01:28:45;;;;;;;5.07;2.03;;;;;;;19.15;41.68;103845.53;5013362;28;20495;-59
2022/03/18 01:31:10;;;;;;;5.13;2.47;;;;;;;19.12;41.38;103840.34;5014465;28;20084;-59
2022/03/18 01:33:37;;;;;;;3.83;1.95;;;;;;;19.12;41.43;103845.66;5014069;28;20369;-59
2022/03/18 01:36:04;;;;;;;4.57;2.08;;;;;;;19.10;41.44;103847.47;5012790;28;20496;-60
2022/03/18 01:38:29;;;;;;;5.25;2.40;;;;;;;19.09;41.38;103837.81;5014202;28;20434;-60
2022/03/18 01:40:55;;;;;;;5.43;2.50;;;;;;;19.09;41.29;103840.47;5014043;28;20100;-59
2022/03/18 01:43:21;;;;;;;5.60;2.45;;;;;;;19.06;41.34;103845.88;5013215;28;20091;-60
2022/03/18 01:45:46;;;;;;;5.47;2.00;;;;;;;19.05;41.55;103849.44;5013913;28;20029;-60
2022/03/18 01:48:11;;;;;;;3.88;1.98;;;;;;;19.03;41.42;103852.13;5014091;28;20435;-59
2022/03/18 01:50:40;;;;;;;5.25;2.38;;;;;;;19.02;41.30;103853.03;5012983;28;20018;-60
2022/03/18 01:53:05;;;;;;;6.10;2.60;;;;;;;19.01;41.23;103851.34;5013836;28;20033;-59
2022/03/18 01:55:30;;;;;;;5.30;2.63;;;;;;;18.99;41.11;103857.59;5013842;28;20179;-59
2022/03/18 01:57:56;;;;;;;4.38;2.42;;;;;;;18.98;41.17;103855.88;5013308;28;20278;-59
2022/03/18 02:00:21;;;;;;;4.33;2.23;;;;;;;18.96;41.35;103855.06;5014041;28;20026;-59
2022/03/18 02:02:47;;;;;;;4.65;2.10;;;;;;;18.96;41.08;103848.00;5012845;28;20286;-59
2022/03/18 02:05:12;;;;;;;5.22;2.42;;;;;;;18.94;41.12;103847.19;5013853;28;20040;-59
2022/03/18 02:07:38;;;;;;;4.97;2.33;;;;;;;18.93;41.23;103853.41;5013376;28;20026;-60
2022/03/18 02:10:05;;;;;;;5.70;2.42;;;;;;;18.93;41.42;103852.53;5012812;28;20072;-60
2022/03/18 02:12:31;;;;;;;6.13;2.72;;;;;;;18.93;41.19;103852.53;5013500;28;20105;-60
2022/03/18 02:14:56;;;;;;;4.68;2.38;;;;;;;18.90;41.13;103865.84;5013349;28;20034;-60
2022/03/18 02:17:21;;;;;;;5.18;2.53;;;;;;;18.90;41.18;103860.56;5012833;28;20033;-60
2022/03/18 02:19:47;;;;;;;5.15;2.80;;;;;;;18.87;40.83;103863.31;5013169;28;20033;-60
2022/03/18 02:22:21;;;;;;;4.65;2.55;;;;;;;18.87;40.96;103865.97;5013399;28;20444;-60
2022/03/18 02:24:49;;;;;;;4.88;2.33;;;;;;;18.85;40.78;103869.53;5012355;28;20535;-59
2022/03/18 02:27:14;;;;;;;5.03;2.53;;;;;;;18.83;40.91;103868.72;5013471;28;20071;-59
2022/03/18 02:29:41;;;;;;;4.97;2.70;;;;;;;18.83;41.05;103868.72;5013251;28;20018;-59
2022/03/18 02:32:07;;;;;;;5.68;2.85;;;;;;;18.80;41.22;103866.19;5012686;28;20018;-59
2022/03/18 02:34:34;;;;;;;4.43;2.53;;;;;;;18.79;41.09;103858.31;5013174;28;20203;-59
2022/03/18 02:36:59;;;;;;;4.78;2.40;;;;;;;18.80;41.27;103860.00;5013193;28;20492;-59
2022/03/18 02:39:25;;;;;;;5.07;2.50;;;;;;;18.81;41.39;103862.59;5012423;28;20026;-59
2022/03/18 02:41:50;;;;;;;5.20;2.58;;;;;;;18.88;40.94;103880.91;5013062;28;20030;-59
2022/03/18 02:44:16;;;;;;;5.97;2.60;;;;;;;18.91;41.19;103881.66;5013339;28;20028;-59
2022/03/18 02:46:41;;;;;;;5.57;2.72;;;;;;;18.95;40.73;103880.63;5012161;28;20025;-59
2022/03/18 02:49:07;;;;;;;5.03;2.45;;;;;;;18.97;40.78;103883.22;5013249;28;20022;-59
2022/03/18 02:51:36;;;;;;;5.30;2.55;;;;;;;19.01;40.64;103876.91;5013028;28;20487;-59
2022/03/18 02:54:01;;;;;;;6.03;2.50;;;;;;;19.02;40.49;103878.63;5012095;28;20473;-59
2022/03/18 02:56:26;;;;;;;5.68;2.38;;;;;;;19.03;40.77;103880.34;5013256;28;20022;-60
2022/03/18 02:58:52;;;;;;;5.33;2.47;;;;;;;19.05;40.58;103872.38;5012274;28;20436;-59
2022/03/18 03:01:17;;;;;;;4.88;2.60;;;;;;;19.01;40.40;103872.47;5013099;28;20861;-59
2022/03/18 03:03:43;;;;;;;4.70;2.40;;;;;;;19.08;40.79;103891.59;5012749;28;20489;-59
2022/03/18 03:08:52;;;;;;;5.60;2.70;;;;;;;19.06;40.73;103893.44;5012956;28;20041;-58
2022/03/18 03:11:18;;;;;;;4.22;2.60;;;;;;;19.06;40.42;103897.84;5013002;28;20025;-59
2022/03/18 03:13:43;;;;;;;4.70;2.35;;;;;;;19.06;40.47;103906.66;5011691;28;20042;-58
2022/03/18 03:16:09;;;;;;;5.60;2.83;;;;;;;19.02;40.57;103908.53;5013259;28;20109;-58
2022/03/18 03:18:35;;;;;;;6.68;2.70;;;;;;;19.03;40.32;103909.44;5012560;28;20026;-58
2022/03/18 03:21:01;;;;;;;5.22;2.90;;;;;;;19.02;40.25;103905.91;5012094;28;20080;-58
2022/03/18 03:23:26;;;;;;;6.15;2.42;;;;;;;19.02;40.27;103912.97;5012702;28;20033;-59
2022/03/18 03:25:55;;;;;;;5.18;2.70;;;;;;;19.01;40.02;103911.28;5012376;28;20049;-60
2022/03/18 03:28:21;;;;;;;5.13;2.65;;;;;;;19.00;40.09;103910.38;5012031;28;20025;-59
2022/03/18 03:30:48;;;;;;;5.05;2.55;;;;;;;19.00;39.71;103913.03;5012375;28;20021;-60
2022/03/18 03:33:14;;;;;;;5.10;2.88;;;;;;;19.01;39.89;103924.47;5012637;28;20060;-59
2022/03/18 03:35:40;;;;;;;5.03;2.60;;;;;;;19.01;39.73;103924.47;5011449;28;20156;-59
2022/03/18 03:38:05;;;;;;;5.15;2.75;;;;;;;19.03;39.95;103912.06;5012551;28;20022;-59
2022/03/18 03:40:31;;;;;;;6.57;2.80;;;;;;;19.05;40.14;103909.38;5012832;28;20058;-59
2022/03/18 03:42:56;;;;;;;4.78;2.63;;;;;;;19.06;39.86;103914.59;5011657;28;20416;-59
2022/03/18 03:45:22;;;;;;;5.45;2.72;;;;;;;19.08;39.43;103915.41;5012800;28;20054;-59
2022/03/18 03:47:48;;;;;;;5.68;2.70;;;;;;;19.08;39.70;103928.63;5012448;28;20022;-59
2022/03/18 03:50:13;;;;;;;7.18;3.15;;;;;;;19.09;39.48;103925.06;5012202;28;20421;-59
2022/03/18 03:52:39;;;;;;;5.43;2.70;;;;;;;19.11;39.55;103932.94;5012429;28;20473;-60
2022/03/18 03:55:07;;;;;;;4.93;2.50;;;;;;;19.11;39.49;103930.28;5012623;28;20037;-60
2022/03/18 03:57:32;;;;;;;5.22;2.63;;;;;;;19.10;39.41;103932.06;5012812;28;20037;-59
2022/03/18 03:59:58;;;;;;;5.45;2.63;;;;;;;19.09;39.30;103933.00;5015833;28;20029;-59
2022/03/18 04:02:24;;;;;;;5.10;2.88;;;;;;;19.09;39.54;103933.00;5015498;28;20041;-60
2022/03/18 04:04:49;;;;;;;5.18;2.83;;;;;;;19.08;39.50;103925.97;5015698;28;20466;-59
2022/03/18 04:07:15;;;;;;;5.68;2.70;;;;;;;19.09;39.75;103951.50;5016318;28;20100;-59
2022/03/18 04:09:41;;;;;;;7.47;3.20;;;;;;;19.08;39.71;103956.84;5014943;28;20030;-59
2022/03/18 04:12:06;;;;;;;4.38;2.60;;;;;;;19.06;39.54;103954.25;5015591;28;20044;-59
2022/03/18 04:14:32;;;;;;;6.38;3.22;;;;;;;19.05;39.67;103952.50;5015754;28;20163;-59
2022/03/18 04:16:57;;;;;;;4.90;2.80;;;;;;;19.01;39.51;103954.41;5014790;28;20077;-59
2022/03/18 04:19:23;;;;;;;5.10;2.72;;;;;;;19.01;39.46;103964.97;5015527;28;20294;-59
2022/03/18 04:21:49;;;;;;;5.03;2.70;;;;;;;18.99;39.48;103963.31;5015268;28;20022;-59
2022/03/18 04:24:14;;;;;;;5.72;2.97;;;;;;;18.98;39.48;103969.53;5015008;28;20049;-59
2022/03/18 04:26:40;;;;;;;5.10;2.67;;;;;;;18.96;39.35;103972.22;5015164;28;20440;-59
2022/03/18 04:29:08;;;;;;;6.00;2.80;;;;;;;18.99;39.14;103976.53;5015649;28;20026;-59
2022/03/18 04:31:33;;;;;;;5.78;2.90;;;;;;;19.02;39.44;103986.97;5014771;28;20029;-59
2022/03/18 04:33:59;;;;;;;5.22;2.85;;;;;;;19.02;39.30;103979.06;5015426;28;20512;-59
2022/03/18 04:36:24;;;;;;;6.00;2.95;;;;;;;19.03;39.19;103976.34;5015664;28;20108;-60
2022/03/18 04:38:49;;;;;;;6.03;2.63;;;;;;;19.05;38.92;103981.59;5014445;28;20014;-60
2022/03/18 04:41:15;;;;;;;4.97;2.50;;;;;;;19.03;38.84;103994.84;5015378;28;20033;-59
2022/03/18 04:43:40;;;;;;;4.15;2.45;;;;;;;19.07;38.90;103994.75;5015005;28;20275;-59
2022/03/18 04:46:05;;;;;;;4.80;2.77;;;;;;;19.06;38.77;103988.63;5014629;28;20026;-59
2022/03/18 04:48:30;;;;;;;6.28;2.97;;;;;;;19.06;38.76;103988.63;5015018;28;20276;-60
2022/03/18 04:50:57;;;;;;;5.93;2.50;;;;;;;19.06;38.48;103985.09;5015065;28;20465;-59
2022/03/18 04:53:22;;;;;;;6.00;2.90;;;;;;;19.06;38.67;103993.00;5014459;28;20398;-60
2022/03/18 04:55:47;;;;;;;5.50;2.92;;;;;;;19.05;38.70;103988.66;5014908;28;20101;-60
2022/03/18 04:58:13;;;;;;;5.85;2.58;;;;;;;19.06;38.66;103991.25;5015137;28;20152;-59
2022/03/18 05:00:38;;;;;;;5.07;2.50;;;;;;;19.09;38.62;104003.47;5013752;28;20470;-60
2022/03/18 05:03:03;;;;;;;4.40;2.42;;;;;;;19.09;38.75;103992.91;5014868;28;20033;-59
2022/03/18 05:05:28;;;;;;;5.63;2.80;;;;;;;19.11;38.61;103997.22;5014158;28;20026;-60
2022/03/18 05:07:54;;;;;;;5.07;2.73;;;;;;;19.12;38.54;104006.03;5014674;28;20302;-59
2022/03/18 05:10:19;;;;;;;5.68;3.00;;;;;;;19.12;38.54;104004.25;5013941;28;20349;-60
2022/03/18 05:12:45;;;;;;;4.40;2.80;;;;;;;19.13;38.21;104016.53;5013478;28;20069;-59
2022/03/18 05:15:12;;;;;;;6.68;2.85;;;;;;;19.14;38.43;104014.78;5014654;28;20034;-59
2022/03/18 05:17:39;;;;;;;6.03;2.75;;;;;;;19.14;38.58;104018.28;5014207;28;20097;-59
2022/03/18 05:20:07;;;;;;;7.60;3.05;;;;;;;19.14;38.33;104023.56;5013961;28;20068;-59
2022/03/18 05:22:32;;;;;;;5.90;3.40;;;;;;;19.12;38.53;104025.41;5014496;28;20030;-59
2022/03/18 05:24:58;;;;;;;5.35;2.83;;;;;;;19.12;37.99;104025.41;5014261;28;20072;-60
2022/03/18 05:27:26;;;;;;;5.80;2.90;;;;;;;19.10;38.10;104021.94;5013745;28;20026;-59
2022/03/18 05:29:52;;;;;;;5.85;2.90;;;;;;;19.11;38.23;104036.03;5014124;28;20046;-59
2022/03/18 05:32:18;;;;;;;5.60;2.88;;;;;;;19.09;38.06;104032.56;5014231;28;20026;-59
2022/03/18 05:34:43;;;;;;;5.88;2.47;;;;;;;19.10;38.21;104027.22;5013283;28;20488;-59
2022/03/18 05:37:10;;;;;;;6.35;2.90;;;;;;;19.11;38.23;104043.97;5014495;28;20034;-59
2022/03/18 05:39:36;;;;;;;6.75;2.92;;;;;;;19.09;38.49;104036.09;5014046;28;20026;-58
2022/03/18 05:42:01;;;;;;;6.45;2.92;;;;;;;19.12;38.37;104038.63;5013212;28;20021;-59
2022/03/18 05:44:26;;;;;;;6.15;2.47;;;;;;;19.15;38.39;104035.88;5013957;28;20034;-59
2022/03/18 05:46:51;;;;;;;6.50;2.90;;;;;;;19.15;38.25;104040.28;5013747;28;20109;-59
2022/03/18 05:49:18;;;;;;;7.45;3.13;;;;;;;19.14;38.24;104031.50;5013393;28;20299;-59
2022/03/18 05:51:44;;;;;;;7.22;3.17;;;;;;;19.16;38.18;104034.94;5013632;28;20030;-59
2022/03/18 05:54:10;;;;;;;6.05;3.00;;;;;;;19.16;38.49;104034.94;5013997;28;20112;-59
2022/03/18 05:56:54;;;;;;;4.40;2.67;;;;;;;19.16;38.39;104032.28;5012689;28;20109;-59
2022/03/18 05:59:24;;;;;;;6.95;3.25;;;;;;;19.14;38.42;104025.34;5013933;28;20195;-60
2022/03/18 06:01:51;;;;;;;6.57;3.10;;;;;;;19.13;38.23;104034.19;5012913;28;20049;-60
2022/03/18 06:04:16;;;;;;;5.93;3.10;;;;;;;19.13;38.31;104031.53;5013592;28;20481;-59
2022/03/18 06:06:43;;;;;;;7.45;3.40;;;;;;;19.13;38.72;104056.19;5013528;28;20076;-59
2022/03/18 06:11:53;;;;;;;6.38;2.88;;;;;;;19.17;39.27;104059.63;5013269;28;20952;-59
2022/03/18 06:14:21;;;;;;;6.50;3.03;;;;;;;19.18;39.35;104054.28;5013838;28;20033;-59
2022/03/18 06:16:52;;;;;;;6.25;2.85;;;;;;;19.23;39.43;104058.53;5012471;28;20025;-59
2022/03/18 06:19:19;;;;;;;6.18;3.05;;;;;;;19.27;39.66;104071.59;5013389;28;20026;-59
2022/03/18 06:21:45;;;;;;;7.90;3.10;;;;;;;19.32;39.91;104068.78;5012803;28;20030;-59
2022/03/18 06:24:12;;;;;;;5.78;2.92;;;;;;;19.36;40.58;104073.06;5012542;28;20029;-59
2022/03/18 06:26:37;;;;;;;5.93;2.67;;;;;;;19.39;40.56;104079.09;5012850;28;20453;-58
2022/03/18 06:29:04;;;;;;;5.15;2.80;;;;;;;19.43;40.67;104082.47;5013431;28;20184;-58
2022/03/18 06:31:30;;;;;;;6.47;3.40;;;;;;;19.47;40.44;104088.50;5012591;28;20058;-58
2022/03/18 06:33:55;;;;;;;5.93;2.85;;;;;;;19.49;40.35;104084.91;5013042;28;20060;-59
2022/03/18 06:36:21;;;;;;;6.33;2.70;;;;;;;19.52;40.15;104089.22;5013281;28;20374;-59
2022/03/18 06:38:46;;;;;;;5.60;2.90;;;;;;;19.52;39.94;104082.16;5012578;28;20278;-59
2022/03/18 06:41:12;;;;;;;5.60;3.03;;;;;;;19.53;39.99;104083.84;5013100;28;20044;-59
2022/03/18 06:43:37;;;;;;;5.75;2.92;;;;;;;19.56;40.13;104088.19;5012926;28;20148;-59
2022/03/18 06:46:03;;;;;;;6.25;2.95;;;;;;;19.58;40.99;104094.28;5012433;28;20496;-59
2022/03/18 06:48:28;;;;;;;6.40;2.85;;;;;;;19.61;41.47;104093.31;5012967;28;20022;-59
2022/03/18 06:50:54;;;;;;;8.20;2.83;;;;;;;19.63;41.57;104099.41;5012573;28;20041;-58
2022/03/18 06:53:19;;;;;;;6.65;3.25;;;;;;;19.65;41.30;104109.03;5012120;28;20022;-59
2022/03/18 06:55:44;;;;;;;6.22;3.00;;;;;;;19.68;41.16;104111.56;5012539;28;20026;-58
2022/03/18 06:58:10;;;;;;;5.03;2.97;;;;;;;19.71;41.19;104118.50;5012396;28;20072;-59
2022/03/18 07:00:35;;;;;;;5.22;2.80;;;;;;;19.70;40.83;104108.84;5012833;28;20686;-60
2022/03/18 07:03:01;;;;;;;6.82;3.03;;;;;;;19.72;40.47;104114.94;5013035;28;20022;-58
2022/03/18 07:05:27;;;;;;;5.22;2.85;;;;;;;19.72;40.68;104114.94;5012280;28;20113;-59
2022/03/18 07:07:52;;;;;;;5.43;2.70;;;;;;;19.74;40.86;104113.97;5012488;28;20026;-59
2022/03/18 07:10:18;;;;;;;6.68;3.22;;;;;;;19.79;41.56;104115.59;5012842;28;20046;-60
2022/03/18 07:12:43;;;;;;;4.75;2.47;;;;;;;19.79;41.64;104116.50;5011804;28;20050;-59
2022/03/18 07:15:09;;;;;;;6.75;3.13;;;;;;;19.80;41.75;104118.19;5012832;28;20030;-58
2022/03/18 07:20:18;;;;;;;6.50;2.83;;;;;;;19.84;41.62;104119.81;5012331;28;20029;-59
2022/03/18 07:22:43;;;;;;;5.95;3.17;;;;;;;19.88;41.71;104128.50;5012323;28;20030;-59
2022/03/18 07:25:09;;;;;;;7.20;2.92;;;;;;;19.89;41.78;104127.59;5012936;28;20029;-59
2022/03/18 07:27:34;;;;;;;6.07;2.80;;;;;;;19.88;41.70;104121.41;5012074;28;20038;-59
2022/03/18 07:29:59;;;;;;;6.55;2.78;;;;;;;19.91;41.79;104129.25;5012818;28;20022;-59
2022/03/18 07:32:25;;;;;;;10.33;2.73;;;;;;;19.88;40.10;104134.66;5012987;28;20477;-59
2022/03/18 07:34:50;;;;;;;6.60;3.05;;;;;;;19.82;39.87;104126.09;5015482;28;20307;-59
2022/03/18 07:37:16;;;;;;;5.10;2.60;;;;;;;19.82;41.08;104134.03;5016266;28;20025;-59
2022/03/18 07:39:41;;;;;;;4.97;2.40;;;;;;;19.78;41.11;104138.56;5016124;28;20029;-61
2022/03/18 07:42:06;;;;;;;7.50;2.63;;;;;;;19.77;41.54;104139.47;5015786;28;20025;-60
2022/03/18 07:44:32;;;;;;;6.57;2.38;;;;;;;19.81;41.93;104146.41;5016393;28;20080;-59
2022/03/18 07:46:57;;;;;;;5.57;2.28;;;;;;;19.85;41.66;104160.38;5016072;28;20018;-58
2022/03/18 07:49:22;;;;;;;7.73;2.70;;;;;;;19.88;41.77;104163.78;5015910;28;20053;-57
2022/03/18 07:51:47;;;;;;;5.43;2.60;;;;;;;19.88;41.72;104161.13;5015690;28;20635;-57
2022/03/18 07:54:13;;;;;;;5.18;2.50;;;;;;;19.87;41.70;104169.16;5015936;28;20436;-58
2022/03/18 07:56:38;;;;;;;6.13;2.20;;;;;;;19.90;41.83;104180.47;5015332;28;20105;-58
2022/03/18 07:59:04;;;;;;;5.85;2.20;;;;;;;19.91;42.02;104174.25;5016130;28;20054;-58
2022/03/18 08:01:29;;;;;;;4.60;2.13;;;;;;;19.98;41.95;104185.50;5015193;28;20021;-58
2022/03/18 08:03:54;;;;;;;6.85;2.65;;;;;;;20.02;42.13;104183.59;5015723;28;20374;-59
2022/03/18 08:06:20;;;;;;;5.97;2.53;;;;;;;20.03;41.96;104180.03;5015952;28;20018;-58
2022/03/18 08:08:45;;;;;;;5.95;2.67;;;;;;;20.02;41.36;104188.88;5014757;28;20857;-58
2022/03/18 08:11:11;;;;;;;7.65;2.35;;;;;;;20.00;41.11;104191.59;5015985;28;20030;-59
2022/03/18 08:13:36;;;;;;;7.22;2.20;;;;;;;20.01;41.86;104187.16;5015291;28;20378;-58
2022/03/18 08:16:02;;;;;;;6.38;2.20;;;;;;;20.01;42.00;104181.84;5015160;28;20033;-58
2022/03/18 08:18:27;;;;;;;4.68;2.22;;;;;;;20.01;42.33;104182.75;5015816;28;20461;-59
2022/03/18 08:20:53;;;;;;;7.15;2.40;;;;;;;20.02;42.52;104195.03;5015481;28;20038;-59
2022/03/18 08:23:19;;;;;;;6.47;2.70;;;;;;;20.03;42.15;104195.94;5014876;28;20091;-59
2022/03/18 08:25:44;;;;;;;6.55;2.08;;;;;;;20.08;42.53;104199.25;5015418;28;20033;-59
2022/03/18 08:28:09;;;;;;;7.68;2.22;;;;;;;20.11;42.58;104200.00;5015677;28;20101;-59
2022/03/18 08:30:35;;;;;;;7.95;2.38;;;;;;;20.13;42.65;104194.66;5014349;28;20026;-59
2022/03/18 08:33:01;;;;;;;5.68;2.38;;;;;;;20.11;42.95;104188.56;5015488;28;20021;-59
2022/03/18 08:35:27;;;;;;;5.05;2.10;;;;;;;20.10;42.75;104203.56;5015327;28;20393;-59
2022/03/18 08:37:56;;;;;;;5.57;2.17;;;;;;;20.11;43.06;104209.75;5014280;28;20420;-59
2022/03/18 08:40:22;;;;;;;4.65;1.90;;;;;;;20.15;43.13;104210.47;5015537;28;20109;-58
2022/03/18 08:42:48;;;;;;;4.00;1.55;;;;;;;20.16;42.95;104210.44;5015194;28;20034;-59
2022/03/18 08:45:13;;;;;;;6.47;2.30;;;;;;;20.22;43.15;104214.63;5014568;28;20123;-58
2022/03/18 08:47:38;;;;;;;4.13;2.10;;;;;;;20.24;43.18;104216.28;5015010;28;20033;-59
2022/03/18 08:50:05;;;;;;;4.63;2.00;;;;;;;20.25;42.83;104219.78;5015240;28;20469;-59
2022/03/18 08:52:30;;;;;;;6.38;2.10;;;;;;;20.26;42.92;104216.22;5014339;28;20038;-60
2022/03/18 08:54:55;;;;;;;6.20;2.35;;;;;;;20.34;43.02;104222.09;5014951;28;20026;-59
2022/03/18 08:57:21;;;;;;;5.95;2.20;;;;;;;20.38;43.07;104231.69;5014733;28;20049;-59
2022/03/18 08:59:46;;;;;;;7.25;2.58;;;;;;;20.42;42.68;104243.00;5014140;28;20026;-59
2022/03/18 09:02:11;;;;;;;6.93;2.30;;;;;;;20.43;42.42;104258.00;5014847;28;20026;-58
2022/03/18 09:04:37;;;;;;;5.32;1.80;;;;;;;20.46;42.68;104250.78;5013917;28;20034;-59
2022/03/18 09:07:02;;;;;;;7.17;1.90;;;;;;;20.47;42.46;104236.63;5014833;28;20454;-59
2022/03/18 09:09:28;;;;;;;5.72;2.10;;;;;;;20.51;42.56;104247.97;5015004;28;20303;-58
2022/03/18 09:11:54;;;;;;;6.60;2.20;;;;;;;20.51;42.50;104253.28;5013757;28;20073;-58
2022/03/18 09:14:19;;;;;;;6.65;2.40;;;;;;;20.53;43.04;104248.75;5014865;28;20046;-59
2022/03/18 09:16:45;;;;;;;5.95;2.22;;;;;;;20.55;42.89;104252.22;5014385;28;20025;-58
2022/03/18 09:19:10;;;;;;;5.43;1.98;;;;;;;20.56;43.00;104258.41;5014069;28;20030;-59
2022/03/18 09:21:35;;;;;;;4.63;1.88;;;;;;;20.56;42.77;104255.75;5014231;28;20385;-59
2022/03/18 09:24:01;;;;;;;5.27;1.90;;;;;;;20.50;43.42;104248.03;5014718;28;20072;-60
2022/03/18 09:26:27;;;;;;;6.57;1.92;;;;;;;20.52;43.53;104260.31;5013927;28;20354;-61
2022/03/18 09:28:53;;;;;;;5.40;2.00;;;;;;;20.59;43.55;104260.94;5014190;28;21009;-61
2022/03/18 09:31:18;;;;;;;4.97;1.70;;;;;;;20.63;43.55;104260.75;5014622;28;20021;-60
2022/03/18 09:33:46;;;;;;;5.55;1.80;;;;;;;20.74;43.21;104265.66;5013257;28;20469;-58
2022/03/18 09:36:11;;;;;;;7.43;2.00;;;;;;;20.77;42.89;104264.69;5014306;28;20030;-59
2022/03/18 09:38:37;;;;;;;4.70;1.70;;;;;;;20.78;42.31;104269.91;5013928;28;20029;-58
2022/03/18 09:41:05;;;;;;;5.30;1.83;;;;;;;20.78;42.16;104266.41;5013543;28;20061;-59
2022/03/18 09:43:36;;;;;;;4.93;1.60;;;;;;;20.78;42.09;104274.38;5014302;28;20018;-60
2022/03/18 09:46:08;;;;;;;5.93;1.70;;;;;;;20.78;42.24;104269.91;5014079;28;20496;-59
2022/03/18 09:48:34;;;;;;;6.38;1.65;;;;;;;20.77;42.06;104270.84;5012978;28;20493;-59
2022/03/18 09:51:00;;;;;;;6.55;1.90;;;;;;;20.77;42.58;104272.63;5014206;28;20053;-59
2022/03/18 09:53:25;;;;;;;4.55;1.52;;;;;;;20.76;42.56;104268.25;5014070;28;20021;-59
2022/03/18 09:55:51;;;;;;;6.07;1.85;;;;;;;20.76;42.93;104271.78;5012344;28;20376;-59
2022/03/18 09:58:17;;;;;;;5.47;1.73;;;;;;;20.76;42.96;104273.53;5013956;28;20021;-59
2022/03/18 10:00:43;;;;;;;5.63;2.38;;;;;;;20.75;42.81;104274.47;5013594;28;20424;-60
2022/03/18 10:03:13;;;;;;;4.75;1.52;;;;;;;20.76;42.38;104278.84;5013035;28;20018;-59
2022/03/18 10:05:58;;;;;;;5.90;1.60;;;;;;;20.75;43.12;104288.59;5013392;28;20466;-58
2022/03/18 10:08:23;;;;;;;8.05;1.73;;;;;;;20.72;43.08;104282.56;5013172;28;20040;-58
2022/03/18 10:10:49;;;;;;;5.03;1.73;;;;;;;20.75;42.98;104285.94;5013446;28;20022;-58
2022/03/18 10:13:16;;;;;;;6.78;1.45;;;;;;;20.76;43.20;104290.34;5013529;28;20073;-58
2022/03/18 10:15:45;;;;;;;6.65;1.70;;;;;;;20.76;43.18;104300.06;5012243;28;20564;-58
2022/03/18 10:18:14;;;;;;;5.05;1.77;;;;;;;20.73;43.02;104294.88;5013773;28;20029;-60
2022/03/18 10:20:42;;;;;;;4.85;1.60;;;;;;;20.73;43.18;104297.50;5013401;28;20037;-58
2022/03/18 10:23:19;;;;;;;5.28;1.55;;;;;;;20.70;43.48;104292.38;5012914;28;20045;-58
2022/03/18 10:25:56;;;;;;;5.88;1.77;;;;;;;20.69;43.62;104295.91;5013130;28;20025;-61
2022/03/18 10:28:40;;;;;;;3.90;1.20;;;;;;;20.69;43.27;104287.97;5013367;28;20088;-58
2022/03/18 10:31:19;;;;;;;4.18;1.70;;;;;;;20.71;43.17;104291.41;5012809;28;20032;-58
2022/03/18 10:39:34;;;;;;;5.95;1.70;;;;;;;20.63;43.52;104284.59;5031277;28;20029;-58
2022/03/18 10:42:01;;;;;;;6.45;1.50;;;;;;;20.63;43.67;104287.25;5032199;28;20061;-58
2022/03/18 10:44:43;;;;;;;7.15;1.60;;;;;;;20.64;43.64;104288.16;5032381;28;20021;-58
2022/03/18 10:47:09;;;;;;;5.43;1.38;;;;;;;20.62;43.44;104297.91;5033089;28;20030;-59
2022/03/18 10:49:35;;;;;;;4.57;1.60;;;;;;;20.63;43.67;104300.50;5032440;28;20461;-59
2022/03/18 10:52:14;;;;;;;6.93;1.70;;;;;;;20.62;42.17;104293.47;5032423;28;20051;-60
2022/03/18 10:54:40;;;;;;;5.90;2.00;;;;;;;20.64;41.73;104291.66;5032264;28;20064;-60
2022/03/18 10:57:05;;;;;;;4.43;1.33;;;;;;;20.63;42.71;104289.91;5032631;28;20095;-59
2022/03/18 10:59:32;;;;;;;5.57;1.65;;;;;;;20.64;43.13;104286.34;5032165;28;20034;-59
2022/03/18 11:01:57;;;;;;;4.85;1.38;;;;;;;20.63;43.28;104294.31;5032345;28;20525;-59
2022/03/18 11:04:24;;;;;;;6.70;1.50;;;;;;;20.61;43.65;104285.56;5031706;28;20185;-58
2022/03/18 11:12:33;;;;;;;8.38;1.55;;;;;;;20.65;42.57;104288.09;5055832;28;20056;-60
2022/03/18 11:14:59;;;;;;;5.22;1.27;;;;;;;20.68;42.15;104288.88;5056707;28;20055;-58
2022/03/18 11:17:25;;;;;;;4.55;1.38;;;;;;;20.68;43.03;104279.16;5056555;28;20036;-58
2022/03/18 11:19:53;;;;;;;3.30;1.30;;;;;;;20.69;43.45;104280.03;5055624;28;20024;-59
2022/03/18 11:22:21;;;;;;;7.97;1.50;;;;;;;20.70;43.58;104276.47;5056537;28;20017;-59
2022/03/18 11:24:48;;;;;;;7.20;1.50;;;;;;;20.68;43.58;104276.53;5056332;28;20024;-59
2022/03/18 11:27:14;;;;;;;6.82;1.35;;;;;;;20.66;43.75;104278.34;5055399;28;20518;-61
2022/03/18 11:29:40;;;;;;;4.15;1.50;;;;;;;20.63;43.87;104276.66;5056208;28;20094;-59
2022/03/18 11:32:15;;;;;;;5.38;1.30;;;;;;;20.63;43.91;104281.97;5056420;28;20159;-60
2022/03/18 11:34:45;;;;;;;5.03;1.08;;;;;;;20.63;44.10;104283.72;5055333;28;20036;-61
2022/03/18 11:37:11;;;;;;;5.10;1.40;;;;;;;20.59;43.70;104277.69;5056172;28;20536;-60
2022/03/18 11:39:37;;;;;;;5.55;1.30;;;;;;;20.59;43.42;104274.19;5055213;28;20159;-60
2022/03/18 11:42:09;;;;;;;4.90;1.70;;;;;;;20.60;42.68;104271.47;5056289;28;20017;-60